Time;durP1;ratioP1;P1;durP2;ratioP2;P2;SDS_P1;SDS_P2;PMS_P1;PMS_P2;Temp;Humidity;BMP_temperature;BMP_pressure;BME280_temperature;BME280_humidity;BME280_pressure;Samples;Min_cycle;Max_cycle;Signal;HPM_P1;HPM_P2
2023/08/26 00:00:48;;;;;;;6.30;1.13;;;;;;;13.66;100.00;99954.00;5046930;28;20083;-87
2023/08/26 00:03:14;;;;;;;6.05;0.93;;;;;;;13.64;100.00;99954.19;5031663;28;20398;-88
2023/08/26 00:05:41;;;;;;;7.85;1.23;;;;;;;13.64;100.00;99956.00;5031613;28;20418;-87
2023/08/26 00:08:06;;;;;;;4.07;1.20;;;;;;;13.63;100.00;99952.50;5045357;28;20076;-88
2023/08/26 00:10:32;;;;;;;4.70;1.25;;;;;;;13.67;100.00;99957.47;5031528;28;20037;-89
2023/08/26 00:12:58;;;;;;;5.05;1.05;;;;;;;13.66;100.00;99951.34;5012272;28;20037;-87
2023/08/26 00:15:24;;;;;;;4.50;1.08;;;;;;;13.63;100.00;99949.88;5030252;28;20041;-88
2023/08/26 00:17:50;;;;;;;5.85;0.98;;;;;;;13.60;100.00;99954.72;5015909;28;20485;-88
2023/08/26 00:20:15;;;;;;;9.80;1.08;;;;;;;13.52;100.00;99956.41;5000086;28;20044;-87
2023/08/26 00:22:41;;;;;;;8.02;1.10;;;;;;;13.49;100.00;99953.28;5027309;28;20115;-88
2023/08/26 00:25:09;;;;;;;7.85;1.15;;;;;;;13.48;100.00;99959.56;5046082;28;20029;-88
2023/08/26 00:27:34;;;;;;;2.80;0.88;;;;;;;13.42;100.00;99955.78;5027671;28;20029;-87
2023/08/26 00:30:00;;;;;;;9.68;1.20;;;;;;;13.37;100.00;99960.78;5028450;28;20068;-88
2023/08/26 00:32:27;;;;;;;4.47;0.93;;;;;;;13.30;100.00;99954.53;5023930;28;20083;-88
2023/08/26 00:34:53;;;;;;;4.43;1.13;;;;;;;13.27;100.00;99967.16;5046316;28;20035;-88
2023/08/26 00:37:18;;;;;;;5.47;1.15;;;;;;;13.26;100.00;99960.19;5030321;28;20470;-88
2023/08/26 00:39:46;;;;;;;7.20;1.27;;;;;;;13.25;100.00;99961.19;5028726;28;20390;-87
2023/08/26 00:42:12;;;;;;;3.13;1.25;;;;;;;13.20;100.00;99957.41;5029261;28;20061;-88
2023/08/26 00:44:38;;;;;;;6.15;1.25;;;;;;;13.14;100.00;99962.41;5000163;28;20140;-87
2023/08/26 00:47:04;;;;;;;5.57;1.00;;;;;;;13.15;100.00;99966.69;5028202;28;20041;-86
2023/08/26 00:49:30;;;;;;;7.43;1.27;;;;;;;13.12;100.00;99961.72;5014489;28;20505;-87
2023/08/26 00:51:56;;;;;;;2.50;0.90;;;;;;;13.08;100.00;99959.59;5028958;28;20120;-87
2023/08/26 00:54:22;;;;;;;4.45;1.20;;;;;;;13.03;100.00;99950.34;5031600;28;20398;-87
2023/08/26 00:56:48;;;;;;;7.82;1.40;;;;;;;13.02;100.00;99955.81;5011936;28;20060;-87
2023/08/26 00:59:14;;;;;;;7.30;1.52;;;;;;;12.99;100.00;99949.03;4973695;28;20045;-88
2023/08/26 01:01:41;;;;;;;6.07;1.15;;;;;;;12.97;100.00;99952.84;5044076;28;20103;-88
2023/08/26 01:04:07;;;;;;;7.13;1.52;;;;;;;12.97;100.00;99956.34;5012731;28;20107;-87
2023/08/26 01:06:33;;;;;;;8.48;1.52;;;;;;;12.95;100.00;99960.19;5025142;28;20073;-87
2023/08/26 01:08:59;;;;;;;8.20;1.58;;;;;;;12.91;100.00;99957.03;5005437;28;20061;-87
2023/08/26 01:11:44;;;;;;;3.05;1.35;;;;;;;12.97;100.00;99950.19;5028484;28;20148;-87
2023/08/26 01:14:34;;;;;;;9.55;1.38;;;;;;;12.98;100.00;99950.03;5044316;28;20033;-87
2023/08/26 01:17:01;;;;;;;12.10;1.50;;;;;;;12.98;100.00;99944.72;5027029;28;20394;-87
2023/08/26 01:19:35;;;;;;;11.05;1.75;;;;;;;13.03;100.00;99950.34;5012108;28;20474;-87
2023/08/26 01:22:07;;;;;;;6.00;1.58;;;;;;;13.05;100.00;99946.69;5010332;28;20025;-87
2023/08/26 01:24:34;;;;;;;9.70;1.42;;;;;;;13.04;100.00;99948.53;5026485;28;20097;-87
2023/08/26 01:27:00;;;;;;;5.55;1.52;;;;;;;13.02;100.00;99951.34;5033302;28;20039;-87
2023/08/26 01:29:26;;;;;;;9.77;1.50;;;;;;;13.03;100.00;99953.00;5031861;28;20401;-87
2023/08/26 01:31:57;;;;;;;7.13;1.90;;;;;;;13.07;100.00;99950.00;5015130;28;20033;-88
2023/08/26 01:34:29;;;;;;;13.05;1.50;;;;;;;13.04;100.00;99935.25;5044683;28;20167;-87
2023/08/26 01:36:58;;;;;;;8.70;2.00;;;;;;;13.01;100.00;99933.75;5053153;28;20035;-87
2023/08/26 01:39:25;;;;;;;8.43;1.33;;;;;;;13.00;100.00;99928.63;5030928;28;20524;-87
2023/08/26 01:41:51;;;;;;;9.05;1.55;;;;;;;13.00;100.00;99934.78;5008691;28;20042;-88
2023/08/26 01:44:18;;;;;;;15.10;2.10;;;;;;;13.01;100.00;99925.00;5026485;28;20047;-88
2023/08/26 01:46:46;;;;;;;9.07;1.83;;;;;;;12.94;100.00;99926.66;5017379;28;20041;-87
2023/08/26 01:49:13;;;;;;;8.88;2.38;;;;;;;12.89;100.00;99924.53;5048575;28;20037;-88
2023/08/26 01:51:40;;;;;;;11.75;1.90;;;;;;;12.85;100.00;99920.59;5034766;28;20034;-88
2023/08/26 01:54:06;;;;;;;22.65;2.58;;;;;;;12.81;100.00;99921.91;5033107;28;20065;-88
2023/08/26 01:56:33;;;;;;;7.57;1.73;;;;;;;12.77;100.00;99921.44;5021022;28;20068;-88
2023/08/26 01:58:58;;;;;;;12.85;2.22;;;;;;;12.75;100.00;99916.31;5011130;28;20551;-88
2023/08/26 02:01:24;;;;;;;12.93;1.40;;;;;;;12.73;100.00;99920.13;5004650;28;20127;-87
2023/08/26 02:03:51;;;;;;;14.75;2.17;;;;;;;12.65;100.00;99919.16;5017944;28;20045;-89
2023/08/26 02:06:17;;;;;;;11.65;1.35;;;;;;;12.59;100.00;99916.38;5017345;28;20468;-88
2023/08/26 02:08:44;;;;;;;8.05;1.48;;;;;;;12.56;100.00;99917.53;5014021;28;20049;-87
2023/08/26 02:11:09;;;;;;;5.57;1.67;;;;;;;12.51;100.00;99917.22;5018789;28;20034;-87
2023/08/26 02:13:36;;;;;;;10.80;1.52;;;;;;;12.50;100.00;99929.63;5063798;28;20103;-88
2023/08/26 02:16:02;;;;;;;5.72;1.13;;;;;;;12.44;100.00;99926.88;5011626;28;20045;-88
2023/08/26 02:18:28;;;;;;;11.82;1.98;;;;;;;12.43;100.00;99927.84;5047189;28;20514;-87
2023/08/26 02:20:55;;;;;;;9.63;2.00;;;;;;;12.43;100.00;99925.19;5031458;28;20099;-88
2023/08/26 02:23:21;;;;;;;8.75;1.45;;;;;;;12.40;100.00;99921.91;5030872;28;20029;-87
2023/08/26 02:25:47;;;;;;;6.28;1.30;;;;;;;12.41;100.00;99917.41;5035232;28;20037;-87
2023/08/26 02:28:13;;;;;;;8.32;1.20;;;;;;;12.44;100.00;99910.97;5017578;28;20594;-87
2023/08/26 02:30:39;;;;;;;15.15;2.65;;;;;;;12.40;100.00;99924.56;5016019;28;20030;-87
2023/08/26 02:33:06;;;;;;;7.40;1.20;;;;;;;12.41;100.00;99920.06;5049602;28;20034;-87
2023/08/26 02:35:34;;;;;;;10.75;1.27;;;;;;;12.44;100.00;99924.22;5024266;28;20026;-88
2023/08/26 02:37:59;;;;;;;11.40;1.45;;;;;;;12.38;100.00;99931.00;5018930;28;20503;-88
2023/08/26 02:40:25;;;;;;;4.30;1.23;;;;;;;12.38;100.00;99915.09;5018558;28;20037;-89
2023/08/26 02:42:51;;;;;;;13.75;1.38;;;;;;;12.39;100.00;99927.38;4999281;28;20036;-88
2023/08/26 02:45:17;;;;;;;8.45;1.02;;;;;;;12.42;100.00;99923.53;5050282;28;20025;-89
2023/08/26 02:47:44;;;;;;;9.75;1.60;;;;;;;12.39;100.00;99917.56;5050149;28;20065;-88
2023/08/26 02:50:10;;;;;;;10.38;1.27;;;;;;;12.39;100.00;99911.47;5032301;28;20486;-88
2023/08/26 02:52:35;;;;;;;12.02;2.88;;;;;;;12.44;100.00;99913.59;5011099;28;20040;-87
2023/08/26 02:55:01;;;;;;;6.55;1.52;;;;;;;12.47;100.00;99918.56;5032622;28;20403;-87
2023/08/26 02:57:27;;;;;;;7.35;1.52;;;;;;;12.42;100.00;99916.44;5031340;28;20068;-87
2023/08/26 02:59:53;;;;;;;6.40;0.98;;;;;;;12.45;100.00;99913.44;5004833;28;20037;-87
2023/08/26 03:02:24;;;;;;;9.18;1.33;;;;;;;12.47;100.00;99918.56;5013578;28;20112;-88
2023/08/26 03:04:51;;;;;;;9.98;2.20;;;;;;;12.47;100.00;99918.56;5015016;28;20573;-89
2023/08/26 03:07:17;;;;;;;5.57;1.20;;;;;;;12.46;100.00;99909.78;5034617;28;20034;-88
2023/08/26 03:09:42;;;;;;;7.45;1.27;;;;;;;12.47;100.00;99919.38;5037173;28;20056;-89
2023/08/26 03:12:08;;;;;;;5.00;0.75;;;;;;;12.41;100.00;99914.75;5015573;28;20043;-88
2023/08/26 03:14:34;;;;;;;1.90;0.40;;;;;;;12.39;100.00;99919.41;5010706;28;20894;-88
2023/08/26 03:16:59;;;;;;;5.07;0.55;;;;;;;12.40;100.00;99913.94;5013387;28;20037;-87
2023/08/26 03:19:25;;;;;;;4.07;0.75;;;;;;;12.40;100.00;99915.75;5029593;28;20037;-90
2023/08/26 03:21:51;;;;;;;5.47;0.80;;;;;;;12.40;100.00;99910.47;5013894;28;20048;-88
2023/08/26 03:24:17;;;;;;;2.17;0.63;;;;;;;12.40;100.00;99905.16;5019074;28;20040;-88
2023/08/26 03:26:44;;;;;;;5.32;0.73;;;;;;;12.43;100.00;99906.63;5035238;28;20029;-88
2023/08/26 03:29:10;;;;;;;3.08;0.55;;;;;;;12.43;100.00;99903.97;4999073;28;20035;-87
2023/08/26 03:31:36;;;;;;;3.50;0.60;;;;;;;12.39;100.00;99899.03;5028039;28;20037;-88
2023/08/26 03:34:02;;;;;;;5.28;0.73;;;;;;;12.36;100.00;99901.22;5016380;28;20041;-87
2023/08/26 03:36:28;;;;;;;7.28;0.70;;;;;;;12.32;100.00;99906.00;5028204;28;20519;-88
2023/08/26 03:38:55;;;;;;;7.18;1.27;;;;;;;12.28;100.00;99902.88;5042818;28;20030;-88
2023/08/26 03:41:22;;;;;;;4.32;0.70;;;;;;;12.29;100.00;99901.06;5045121;28;20029;-89
2023/08/26 03:43:48;;;;;;;6.47;0.85;;;;;;;12.28;100.00;99886.97;5044898;28;20134;-88
2023/08/26 03:46:13;;;;;;;9.18;1.65;;;;;;;12.25;100.00;99887.31;5050841;28;20044;-89
2023/08/26 03:48:40;;;;;;;6.78;1.13;;;;;;;12.26;100.00;99881.00;5014610;28;20061;-88
2023/08/26 03:51:05;;;;;;;4.95;0.85;;;;;;;12.28;100.00;99875.53;5049380;28;20030;-88
2023/08/26 03:53:32;;;;;;;5.03;1.13;;;;;;;12.29;100.00;99874.56;5030565;28;20265;-88
2023/08/26 03:55:59;;;;;;;7.90;1.27;;;;;;;12.31;100.00;99877.84;5029675;28;20497;-89
2023/08/26 03:58:26;;;;;;;7.30;1.77;;;;;;;12.31;100.00;99879.69;5029883;28;20402;-88
2023/08/26 04:01:04;;;;;;;6.20;0.98;;;;;;;12.31;100.00;99882.34;5013765;28;20068;-88
2023/08/26 04:03:30;;;;;;;6.05;1.40;;;;;;;12.26;100.00;99881.00;5044376;28;20041;-88
2023/08/26 04:06:04;;;;;;;5.90;0.95;;;;;;;12.28;100.00;99889.63;5051967;28;20037;-87
2023/08/26 04:08:31;;;;;;;7.32;1.10;;;;;;;12.25;100.00;99889.13;5027637;28;20529;-86
2023/08/26 04:10:59;;;;;;;9.27;1.13;;;;;;;12.27;100.00;99890.63;5047455;28;20037;-88
2023/08/26 04:13:28;;;;;;;2.78;0.70;;;;;;;12.27;100.00;99881.84;5042501;28;20037;-88
2023/08/26 04:15:58;;;;;;;4.22;0.80;;;;;;;12.28;100.00;99886.97;5022902;28;20059;-88
2023/08/26 04:18:24;;;;;;;5.90;1.02;;;;;;;12.30;100.00;99889.44;5046314;28;20529;-87
2023/08/26 04:20:52;;;;;;;8.80;1.63;;;;;;;12.31;100.00;99888.44;5011446;28;20055;-87
2023/08/26 04:23:18;;;;;;;11.98;1.33;;;;;;;12.30;100.00;99884.16;5026385;28;20034;-88
2023/08/26 04:25:44;;;;;;;5.28;1.13;;;;;;;12.31;100.00;99887.63;4993331;28;20081;-88
2023/08/26 04:28:12;;;;;;;5.25;1.08;;;;;;;12.31;100.00;99883.13;5020505;28;20022;-87
2023/08/26 04:30:38;;;;;;;7.80;1.05;;;;;;;12.31;100.00;99882.34;5027585;28;20029;-86
2023/08/26 04:33:05;;;;;;;5.18;0.95;;;;;;;12.32;100.00;99881.31;5051991;28;20437;-88
2023/08/26 04:35:31;;;;;;;9.20;1.40;;;;;;;12.33;100.00;99885.63;5028756;28;20033;-88
2023/08/26 04:37:57;;;;;;;11.13;1.27;;;;;;;12.31;100.00;99887.63;4995363;28;20091;-87
2023/08/26 04:40:25;;;;;;;6.07;0.98;;;;;;;12.32;100.00;99878.69;5043138;28;20041;-88
2023/08/26 04:42:51;;;;;;;9.13;1.55;;;;;;;12.32;100.00;99894.56;5017423;28;20516;-88
2023/08/26 04:45:17;;;;;;;6.43;1.00;;;;;;;12.33;100.00;99888.28;4994701;28;20029;-87
2023/08/26 04:47:43;;;;;;;4.82;1.00;;;;;;;12.31;100.00;99882.34;4995423;28;20090;-88
2023/08/26 04:50:11;;;;;;;4.68;1.08;;;;;;;12.31;100.00;99883.13;5027139;28;20048;-89
2023/08/26 04:52:39;;;;;;;9.32;1.88;;;;;;;12.29;100.00;99895.75;5044442;28;20503;-88
2023/08/26 04:55:09;;;;;;;9.10;1.27;;;;;;;12.31;100.00;99896.38;5027217;28;20030;-88
2023/08/26 04:57:35;;;;;;;5.35;1.02;;;;;;;12.30;100.00;99897.41;5045692;28;20041;-88
2023/08/26 05:00:01;;;;;;;8.13;1.23;;;;;;;12.30;100.00;99897.41;5013362;28;20050;-88
2023/08/26 05:02:29;;;;;;;5.85;1.00;;;;;;;12.33;100.00;99902.34;5017335;28;20478;-87
2023/08/26 05:04:55;;;;;;;6.45;0.73;;;;;;;12.35;100.00;99899.53;5039906;28;20037;-88
2023/08/26 05:07:21;;;;;;;5.82;1.25;;;;;;;12.32;100.00;99906.00;5046114;28;20068;-87
2023/08/26 05:09:47;;;;;;;4.40;1.00;;;;;;;12.28;100.00;99900.22;5027782;28;20120;-88
2023/08/26 05:12:13;;;;;;;4.43;0.80;;;;;;;12.28;100.00;99902.88;5044665;28;20033;-87
2023/08/26 05:14:38;;;;;;;6.45;1.17;;;;;;;12.30;100.00;99900.03;5011164;28;20044;-88
2023/08/26 05:17:05;;;;;;;6.57;0.88;;;;;;;12.28;100.00;99910.81;5027560;28;20074;-88
2023/08/26 05:19:30;;;;;;;3.05;0.73;;;;;;;12.33;100.00;99907.66;5019336;28;20060;-88
2023/08/26 05:21:57;;;;;;;7.70;1.10;;;;;;;12.32;100.00;99900.72;5032805;28;20101;-88
2023/08/26 05:24:23;;;;;;;6.90;0.80;;;;;;;12.32;100.00;99907.81;5046480;28;20493;-88
2023/08/26 05:26:49;;;;;;;9.27;0.98;;;;;;;12.27;100.00;99903.03;5027904;28;20075;-88
2023/08/26 05:29:15;;;;;;;8.43;0.95;;;;;;;12.30;100.00;99904.50;5035634;28;20037;-87
2023/08/26 05:31:41;;;;;;;2.55;0.65;;;;;;;12.29;100.00;99911.66;5015025;28;20057;-88
2023/08/26 05:34:07;;;;;;;7.20;0.90;;;;;;;12.25;100.00;99915.63;4994432;28;20041;-86
2023/08/26 05:36:33;;;;;;;7.60;0.95;;;;;;;12.27;100.00;99919.78;5032208;28;20026;-87
2023/08/26 05:38:59;;;;;;;7.65;1.38;;;;;;;12.29;100.00;99916.94;5017252;28;20649;-87
2023/08/26 05:41:25;;;;;;;4.13;0.93;;;;;;;12.30;100.00;99918.59;5017175;28;20025;-87
2023/08/26 05:43:51;;;;;;;7.00;1.17;;;;;;;12.30;100.00;99926.53;5031112;28;20040;-88
2023/08/26 05:46:17;;;;;;;8.02;1.35;;;;;;;12.33;100.00;99918.25;4999646;28;20063;-88
2023/08/26 05:48:43;;;;;;;5.85;1.10;;;;;;;12.38;100.00;99928.34;5031397;28;20040;-89
2023/08/26 05:51:09;;;;;;;5.55;0.80;;;;;;;12.41;100.00;99922.72;5030335;28;20029;-88
2023/08/26 05:53:35;;;;;;;5.45;0.70;;;;;;;12.43;100.00;99922.53;5019217;28;20494;-87
2023/08/26 05:56:01;;;;;;;9.63;1.00;;;;;;;12.44;100.00;99925.00;5036621;28;20048;-88
2023/08/26 05:58:28;;;;;;;8.20;1.20;;;;;;;12.48;100.00;99936.13;5047805;28;20430;-88
2023/08/26 06:00:54;;;;;;;5.88;1.08;;;;;;;12.49;100.00;99932.47;5015432;28;20045;-87
2023/08/26 06:03:19;;;;;;;8.85;0.93;;;;;;;12.52;100.00;99937.41;5025769;28;20034;-89
2023/08/26 06:05:46;;;;;;;8.48;1.08;;;;;;;12.52;100.00;99937.41;5035757;28;20029;-88
2023/08/26 06:08:12;;;;;;;9.02;1.92;;;;;;;12.55;100.00;99941.56;4994330;28;20056;-87
2023/08/26 06:10:40;;;;;;;4.18;0.90;;;;;;;12.56;100.00;99930.81;5047306;28;21311;-87
2023/08/26 06:13:06;;;;;;;4.00;0.80;;;;;;;12.64;100.00;99938.75;5032410;28;20034;-87
2023/08/26 06:15:32;;;;;;;3.17;0.80;;;;;;;12.69;100.00;99943.53;5029480;28;20034;-87
2023/08/26 06:17:59;;;;;;;6.82;1.08;;;;;;;12.73;100.00;99941.34;5027976;28;20033;-87
2023/08/26 06:20:26;;;;;;;9.02;0.90;;;;;;;12.77;100.00;99940.81;5039183;28;20751;-88
2023/08/26 06:22:52;;;;;;;4.25;0.80;;;;;;;12.77;100.00;99940.03;5048331;28;20055;-87
2023/08/26 06:25:20;;;;;;;8.60;0.75;;;;;;;12.77;100.00;99943.47;5054231;28;20044;-88
2023/08/26 06:27:46;;;;;;;4.05;0.77;;;;;;;12.78;100.00;99945.16;5048296;28;20092;-87
2023/08/26 06:30:12;;;;;;;5.75;0.88;;;;;;;12.76;100.00;99941.84;5030744;28;20381;-87
2023/08/26 06:32:38;;;;;;;4.47;0.75;;;;;;;12.77;100.00;99940.81;5029530;28;20040;-87
2023/08/26 06:35:04;;;;;;;7.57;1.05;;;;;;;12.81;100.00;99938.66;5041061;28;20028;-87
2023/08/26 06:37:30;;;;;;;5.35;0.68;;;;;;;12.82;100.00;99942.16;5032927;28;20038;-87
2023/08/26 06:39:56;;;;;;;3.85;0.95;;;;;;;12.79;100.00;99945.97;5045679;28;20179;-87
2023/08/26 06:42:22;;;;;;;7.45;1.00;;;;;;;12.82;100.00;99947.47;5048245;28;20040;-87
2023/08/26 06:44:54;;;;;;;8.98;0.73;;;;;;;12.90;100.00;99955.38;5029969;28;20044;-87
2023/08/26 06:47:20;;;;;;;3.13;0.47;;;;;;;12.94;100.00;99954.03;5021079;28;20548;-87
2023/08/26 06:49:46;;;;;;;5.38;1.02;;;;;;;12.93;100.00;99956.88;5030577;28;20041;-86
2023/08/26 06:52:13;;;;;;;6.25;0.85;;;;;;;12.90;100.00;99958.00;5015989;28;20030;-88
2023/08/26 06:54:39;;;;;;;3.50;0.77;;;;;;;12.90;100.00;99955.38;5013480;28;20034;-87
2023/08/26 06:57:05;;;;;;;3.45;0.60;;;;;;;12.95;100.00;99953.03;5028188;28;20053;-87
2023/08/26 06:59:30;;;;;;;4.30;0.80;;;;;;;12.99;100.00;99956.16;5023539;28;20088;-87
2023/08/26 07:01:56;;;;;;;4.10;1.05;;;;;;;13.01;100.00;99956.84;5028158;28;20033;-87
2023/08/26 07:04:24;;;;;;;6.13;0.70;;;;;;;13.05;100.00;99959.94;5013061;28;20030;-87
2023/08/26 07:06:50;;;;;;;5.47;0.90;;;;;;;13.02;100.00;99958.47;5031576;28;20033;-87
2023/08/26 07:09:16;;;;;;;6.38;1.02;;;;;;;13.02;100.00;99958.47;5030029;28;20068;-86
2023/08/26 07:11:42;;;;;;;7.28;0.85;;;;;;;13.01;100.00;99952.34;5024951;28;20397;-87
2023/08/26 07:14:07;;;;;;;5.45;0.70;;;;;;;13.05;100.00;99959.94;4996954;28;20021;-86
2023/08/26 07:16:33;;;;;;;5.25;0.90;;;;;;;13.07;100.00;99950.00;4998483;28;20145;-87
2023/08/26 07:18:59;;;;;;;6.13;0.88;;;;;;;13.13;100.00;99957.25;5011746;28;20041;-87
2023/08/26 07:21:25;;;;;;;4.07;0.73;;;;;;;13.14;100.00;99959.75;5012698;28;20049;-87
2023/08/26 07:23:51;;;;;;;3.80;1.30;;;;;;;13.10;100.00;99957.63;5028335;28;20037;-87
2023/08/26 07:26:17;;;;;;;5.47;1.05;;;;;;;13.15;100.00;99956.06;5013886;28;20029;-86
2023/08/26 07:28:45;;;;;;;7.20;1.27;;;;;;;13.16;100.00;99959.56;5044579;28;20425;-88
2023/08/26 07:31:12;;;;;;;6.72;0.60;;;;;;;13.18;100.00;99952.28;4996112;28;20147;-86
2023/08/26 07:33:37;;;;;;;5.43;0.90;;;;;;;13.24;100.00;99951.56;5004844;28;20044;-87
2023/08/26 07:36:09;;;;;;;5.68;0.68;;;;;;;13.29;100.00;99956.34;5040211;28;20037;-87
2023/08/26 07:38:37;;;;;;;6.13;0.82;;;;;;;13.28;100.00;99960.03;5036238;28;20038;-88
2023/08/26 07:41:03;;;;;;;7.97;1.02;;;;;;;13.33;100.00;99951.53;5033334;28;20397;-88
2023/08/26 07:43:30;;;;;;;3.58;0.90;;;;;;;13.37;100.00;99955.47;5026800;28;20134;-88
2023/08/26 07:45:56;;;;;;;11.07;0.90;;;;;;;13.47;100.00;99957.91;5048560;28;20091;-87
2023/08/26 07:48:22;;;;;;;4.97;0.90;;;;;;;13.56;100.00;99964.03;5043620;28;20798;-88
2023/08/26 07:50:48;;;;;;;9.15;0.75;;;;;;;13.58;100.00;99962.88;4993997;28;20116;-88
2023/08/26 07:53:14;;;;;;;5.13;0.82;;;;;;;13.61;100.00;99957.19;5027426;28;20039;-87
2023/08/26 07:55:40;;;;;;;7.40;0.63;;;;;;;13.59;100.00;99963.66;5012246;28;20029;-86
2023/08/26 07:58:05;;;;;;;6.07;2.05;;;;;;;13.58;100.00;99970.00;5012807;28;20111;-87
2023/08/26 08:00:31;;;;;;;7.72;1.20;;;;;;;13.56;100.00;99967.50;5009118;28;20041;-87
2023/08/26 08:02:57;;;;;;;6.18;1.00;;;;;;;13.56;100.00;99958.72;5031682;28;20126;-87
2023/08/26 08:05:23;;;;;;;8.35;1.10;;;;;;;13.58;100.00;99965.53;5011144;28;20417;-88
2023/08/26 08:07:48;;;;;;;6.68;1.35;;;;;;;13.59;100.00;99961.00;5028540;28;20543;-89
2023/08/26 08:10:14;;;;;;;5.07;0.93;;;;;;;13.59;100.00;99953.88;5042828;28;20049;-87
2023/08/26 08:12:40;;;;;;;5.13;0.88;;;;;;;13.63;100.00;99957.03;5015146;28;20460;-88
2023/08/26 08:15:07;;;;;;;5.18;1.02;;;;;;;13.67;100.00;99957.47;5030708;28;20025;-87
2023/08/26 08:17:33;;;;;;;5.80;1.15;;;;;;;13.77;100.00;99953.59;5019367;28;20032;-86
2023/08/26 08:19:59;;;;;;;8.57;1.17;;;;;;;13.85;100.00;99960.69;5027313;28;20041;-88
2023/08/26 08:22:39;;;;;;;5.03;1.17;;;;;;;13.93;100.00;99966.91;5024982;28;20131;-85
2023/08/26 08:25:06;;;;;;;8.60;0.80;;;;;;;13.91;100.00;99963.59;5041679;28;20049;-87
2023/08/26 08:27:32;;;;;;;7.07;0.90;;;;;;;13.86;100.00;99964.97;5006903;28;20497;-88
2023/08/26 08:29:58;;;;;;;6.75;1.30;;;;;;;13.87;100.00;99971.13;5034739;28;20025;-88
2023/08/26 08:32:24;;;;;;;2.35;0.90;;;;;;;13.89;100.00;99969.09;5026825;28;20529;-86
2023/08/26 08:34:50;;;;;;;6.72;1.15;;;;;;;13.87;100.00;99968.47;5025916;28;20079;-86
2023/08/26 08:37:16;;;;;;;9.20;1.30;;;;;;;13.95;100.00;99964.91;5024046;28;20492;-87
2023/08/26 08:39:42;;;;;;;7.05;1.95;;;;;;;13.96;100.00;99979.84;5041531;28;20033;-87
2023/08/26 08:42:15;;;;;;;11.43;1.02;;;;;;;13.97;100.00;99965.56;5025096;28;20367;-87
2023/08/26 08:44:43;;;;;;;13.68;1.48;;;;;;;13.91;100.00;99964.44;4994668;28;20053;-86
2023/08/26 08:47:09;;;;;;;9.38;1.00;;;;;;;13.89;100.00;99972.59;5039831;28;20037;-87
2023/08/26 08:49:36;;;;;;;5.03;1.80;;;;;;;13.85;100.00;99962.50;5042692;28;20034;-86
2023/08/26 08:52:05;;;;;;;13.63;1.45;;;;;;;13.83;100.00;99965.34;5005991;28;20394;-87
2023/08/26 08:54:34;;;;;;;8.43;1.45;;;;;;;13.86;100.00;99969.47;5035634;28;20033;-88
2023/08/26 08:57:00;;;;;;;10.63;1.25;;;;;;;13.83;100.00;99953.88;5023080;28;20068;-88
2023/08/26 08:59:27;;;;;;;6.72;1.17;;;;;;;13.82;100.00;99957.53;5007653;28;20049;-86
2023/08/26 09:01:55;;;;;;;3.65;0.82;;;;;;;13.84;100.00;99966.97;4992001;28;20135;-88
2023/08/26 09:04:22;;;;;;;6.60;1.33;;;;;;;13.91;100.00;99961.78;5028302;28;20037;-88
2023/08/26 09:06:48;;;;;;;4.43;0.98;;;;;;;13.95;100.00;99968.38;5025553;28;20032;-88
2023/08/26 09:09:15;;;;;;;6.75;1.17;;;;;;;13.95;100.00;99968.38;5037796;28;20045;-88
2023/08/26 09:11:42;;;;;;;4.07;0.80;;;;;;;13.94;100.00;99974.72;5004843;28;20049;-87
2023/08/26 09:14:08;;;;;;;6.53;1.33;;;;;;;13.92;100.00;99967.94;5021805;28;20040;-87
2023/08/26 09:16:35;;;;;;;4.72;0.65;;;;;;;13.90;100.00;99965.47;5008532;28;20030;-87
2023/08/26 09:19:01;;;;;;;3.10;0.70;;;;;;;13.89;100.00;99969.94;5017679;28;20042;-88
2023/08/26 09:21:26;;;;;;;3.70;0.70;;;;;;;13.84;100.00;99987.44;5002764;28;20044;-88
2023/08/26 09:23:54;;;;;;;2.22;0.40;;;;;;;13.75;100.00;99978.66;5009961;28;20026;-87
2023/08/26 09:26:23;;;;;;;3.30;0.55;;;;;;;13.78;100.00;99988.94;4991719;28;20053;-88
2023/08/26 09:28:53;;;;;;;2.72;0.47;;;;;;;13.77;100.00;99992.59;5040567;28;20029;-88
2023/08/26 09:31:20;;;;;;;4.78;0.70;;;;;;;13.73;100.00;99988.63;5011025;28;20092;-88
2023/08/26 09:34:01;;;;;;;3.38;1.05;;;;;;;13.80;100.00;99992.25;5010812;28;20087;-88
2023/08/26 09:36:39;;;;;;;3.95;1.00;;;;;;;13.84;100.00;99993.53;5008141;28;20037;-88
2023/08/26 09:39:14;;;;;;;6.85;1.02;;;;;;;13.86;100.00;100002.16;5027149;28;20051;-88
2023/08/26 09:41:45;;;;;;;5.37;0.73;;;;;;;13.90;100.00;99992.03;5006412;28;20059;-87
2023/08/26 09:44:12;;;;;;;6.20;1.15;;;;;;;13.97;100.00;99994.78;5004861;28;20463;-88
2023/08/26 09:46:42;;;;;;;6.53;0.70;;;;;;;14.05;100.00;99996.56;5005576;28;20041;-86
2023/08/26 09:49:12;;;;;;;3.63;1.02;;;;;;;14.13;100.00;99996.47;5027445;28;20037;-88
2023/08/26 09:51:37;;;;;;;6.93;1.13;;;;;;;14.18;100.00;100003.91;5019594;28;20030;-87
2023/08/26 09:54:05;;;;;;;13.05;1.30;;;;;;;14.24;100.00;99993.41;5024396;28;20684;-88
2023/08/26 09:56:31;;;;;;;7.57;1.45;;;;;;;14.31;100.00;99995.34;5027584;28;20770;-89
2023/08/26 09:58:57;;;;;;;4.82;0.93;;;;;;;14.45;100.00;99993.72;5013785;28;20044;-86
2023/08/26 10:01:24;;;;;;;12.57;1.80;;;;;;;14.50;100.00;100005.47;5046442;28;20041;-88
2023/08/26 10:03:53;;;;;;;7.38;1.48;;;;;;;14.51;100.00;100006.28;5015037;28;20052;-87
2023/08/26 10:06:25;;;;;;;6.25;1.23;;;;;;;14.60;100.00;100004.38;5019378;28;20037;-87
2023/08/26 10:08:58;;;;;;;8.50;0.90;;;;;;;14.60;100.00;100007.03;5017655;28;20057;-89
2023/08/26 10:11:27;;;;;;;8.00;1.35;;;;;;;14.61;100.00;100008.69;5045096;28;20041;-89
2023/08/26 10:13:56;;;;;;;4.15;0.90;;;;;;;14.58;100.00;100009.03;5031669;28;20033;-87
2023/08/26 10:16:23;;;;;;;7.75;1.30;;;;;;;14.59;100.00;100005.38;5031156;28;20078;-88
2023/08/26 10:18:56;;;;;;;5.80;1.00;;;;;;;14.68;100.00;100006.97;5030658;28;20062;-87
2023/08/26 10:21:22;;;;;;;5.07;1.23;;;;;;;14.72;100.00;100004.75;5046388;28;20033;-87
2023/08/26 10:23:49;;;;;;;8.63;1.10;;;;;;;14.84;100.00;100016.59;5045315;28;20029;-87
2023/08/26 10:26:19;;;;;;;5.68;0.90;;;;;;;14.93;100.00;100012.03;5026700;28;20029;-87
2023/08/26 10:28:47;;;;;;;9.15;1.10;;;;;;;14.98;100.00;100011.47;5026440;28;20048;-87
2023/08/26 10:31:14;;;;;;;3.72;0.90;;;;;;;15.02;100.00;100010.09;5018705;28;20347;-88
2023/08/26 10:34:01;;;;;;;6.38;1.15;;;;;;;15.15;100.00;100011.28;5035687;28;20102;-88
2023/08/26 10:36:28;;;;;;;5.75;1.02;;;;;;;15.18;100.00;100009.06;5020596;28;20122;-87
2023/08/26 10:38:58;;;;;;;8.35;1.33;;;;;;;15.31;100.00;100007.56;5027398;28;20037;-87
2023/08/26 10:41:25;;;;;;;8.05;0.93;;;;;;;15.35;100.00;100004.34;5014294;28;20047;-88
2023/08/26 10:44:01;;;;;;;4.10;0.90;;;;;;;15.36;100.00;100005.19;5027619;28;20100;-87
2023/08/26 10:46:37;;;;;;;2.30;0.82;;;;;;;15.28;100.00;100019.44;5044727;28;20497;-88
2023/08/26 10:49:03;;;;;;;3.53;0.65;;;;;;;15.13;100.00;100024.75;5028414;28;20041;-87
2023/08/26 10:51:30;;;;;;;4.70;0.85;;;;;;;15.03;100.00;100025.06;5027879;28;20045;-87
2023/08/26 10:54:02;;;;;;;3.40;0.55;;;;;;;15.00;100.00;100023.59;5030522;28;20390;-89
2023/08/26 10:56:28;;;;;;;3.67;0.52;;;;;;;15.00;100.00;100018.25;5027597;28;20398;-87
2023/08/26 10:59:01;;;;;;;3.17;0.68;;;;;;;15.06;100.00;100027.38;5027311;28;20037;-87
2023/08/26 11:01:29;;;;;;;5.88;0.95;;;;;;;15.10;100.00;100028.63;4997578;28;20052;-88
2023/08/26 11:03:57;;;;;;;4.38;1.00;;;;;;;15.20;100.00;100031.03;5047955;28;20041;-88
2023/08/26 11:06:24;;;;;;;6.97;0.77;;;;;;;15.27;100.00;100022.28;5044861;28;20079;-88
2023/08/26 11:08:54;;;;;;;3.63;0.70;;;;;;;15.38;100.00;100027.13;5029944;28;20444;-87
2023/08/26 11:11:20;;;;;;;3.40;0.77;;;;;;;15.55;100.00;100037.56;5039706;28;20394;-87
2023/08/26 11:13:47;;;;;;;2.00;0.80;;;;;;;15.62;100.00;100038.47;5044554;28;20063;-87
2023/08/26 11:16:14;;;;;;;2.88;0.73;;;;;;;15.75;100.00;100040.47;5013523;28;20125;-88
2023/08/26 11:18:42;;;;;;;5.03;0.60;;;;;;;15.81;100.00;100034.38;5046458;28;20037;-88
2023/08/26 11:21:08;;;;;;;3.13;0.60;;;;;;;15.86;100.00;100031.94;5047412;28;20113;-89
2023/08/26 11:23:34;;;;;;;2.10;0.38;;;;;;;15.77;100.00;100038.41;5029396;28;20033;-88